createdAt,value
2022-11-02T00:00:38.452Z,97839.06
2022-11-02T00:03:07.605Z,97833.88
2022-11-02T00:05:36.988Z,97841.84
2022-11-02T00:08:06.051Z,97841.00
2022-11-02T00:10:34.710Z,97834.88
2022-11-02T00:13:03.545Z,97839.31
2022-11-02T00:15:34.739Z,97835.84
2022-11-02T00:18:06.764Z,97837.66
2022-11-02T00:20:36.852Z,97834.28
2022-11-02T00:23:07.636Z,97830.81
2022-11-02T00:25:39.311Z,97835.97
2022-11-02T00:28:07.972Z,97838.63
2022-11-02T00:30:36.703Z,97843.22
2022-11-02T00:33:06.911Z,97848.50
2022-11-02T00:35:35.679Z,97853.81
2022-11-02T00:38:06.182Z,97861.75
2022-11-02T00:40:35.139Z,97859.09
2022-11-02T00:43:03.792Z,97861.03
2022-11-02T00:45:32.300Z,97854.06
2022-11-02T00:48:01.803Z,97854.91
2022-11-02T00:50:32.933Z,97862.00
2022-11-02T00:53:01.855Z,97849.75
2022-11-02T00:55:30.475Z,97859.50
2022-11-02T00:58:03.934Z,97850.72
2022-11-02T01:00:32.792Z,97854.34
2022-11-02T01:03:01.685Z,97858.78
2022-11-02T01:05:31.798Z,97857.97
2022-11-02T01:08:00.436Z,97861.44
2022-11-02T01:10:29.069Z,97861.56
2022-11-02T01:12:57.588Z,97873.97
2022-11-02T01:15:26.102Z,97865.19
2022-11-02T01:17:54.548Z,97859.91
2022-11-02T01:20:23.036Z,97863.53
2022-11-02T01:22:52.984Z,97867.13
2022-11-02T01:25:21.551Z,97861.84
2022-11-02T01:27:50.185Z,97866.47
2022-11-02T01:30:19.953Z,97868.09
2022-11-02T01:32:48.453Z,97866.47
2022-11-02T01:35:17.293Z,97870.09
2022-11-02T01:37:45.884Z,97870.91
2022-11-02T01:40:15.896Z,97867.44
2022-11-02T01:42:44.379Z,97857.69
2022-11-02T01:45:14.915Z,97867.56
2022-11-02T01:47:45.554Z,97861.44
2022-11-02T01:50:17.904Z,97857.09
2022-11-02T01:52:46.428Z,97856.13
2022-11-02T01:55:20.391Z,97856.25
2022-11-02T01:57:51.155Z,97863.38
2022-11-02T02:00:20.037Z,97859.88
2022-11-02T02:02:52.818Z,97860.72
2022-11-02T02:05:23.648Z,97864.34
2022-11-02T02:07:53.549Z,97861.81
2022-11-02T02:10:23.786Z,97864.47
2022-11-02T02:12:52.369Z,97868.94
2022-11-02T02:15:25.777Z,97869.91
2022-11-02T02:17:57.038Z,97863.78
2022-11-02T02:20:43.207Z,97868.22
2022-11-02T02:23:33.103Z,97874.50
2022-11-02T02:26:29.547Z,97878.09
2022-11-02T02:29:02.471Z,97879.06
2022-11-02T02:31:36.814Z,97876.44
2022-11-02T02:34:10.931Z,97875.72
2022-11-02T02:39:21.143Z,97873.19
2022-11-02T02:41:55.733Z,97879.34
2022-11-02T02:44:29.452Z,97884.63
2022-11-02T02:46:59.894Z,97883.09
2022-11-02T02:49:31.557Z,97890.06
2022-11-02T02:52:01.314Z,97884.91
2022-11-02T02:54:32.686Z,97884.91
2022-11-02T02:57:05.009Z,97881.41
2022-11-02T02:59:38.992Z,97888.50
2022-11-02T03:02:08.384Z,97886.00
2022-11-02T03:04:37.930Z,97878.19
2022-11-02T03:07:07.485Z,97883.47
2022-11-02T03:09:38.170Z,97890.59
2022-11-02T03:12:24.085Z,97884.44
2022-11-02T03:15:05.590Z,97884.31
2022-11-02T03:17:37.536Z,97880.97
2022-11-02T03:20:15.355Z,97893.34
2022-11-02T03:22:50.672Z,97899.63
2022-11-02T03:25:23.378Z,97892.66
2022-11-02T03:27:54.895Z,97901.56
2022-11-02T03:30:27.970Z,97900.72
2022-11-02T03:33:02.378Z,97900.84
2022-11-02T03:35:34.587Z,97906.00
2022-11-02T03:38:05.303Z,97907.09
2022-11-02T03:40:38.954Z,97907.25
2022-11-02T03:43:08.298Z,97903.75
2022-11-02T03:45:41.389Z,97902.06
2022-11-02T03:48:11.210Z,97904.72
2022-11-02T03:50:46.256Z,97905.56
2022-11-02T03:53:19.136Z,97900.41
2022-11-02T03:55:52.978Z,97894.25
2022-11-02T03:58:21.587Z,97891.75
2022-11-02T04:00:55.828Z,97904.97
2022-11-02T04:03:25.427Z,97903.16
2022-11-02T04:05:55.688Z,97906.78
2022-11-02T04:08:34.300Z,97913.75
2022-11-02T04:11:24.529Z,97910.41
2022-11-02T04:14:12.513Z,97905.09
2022-11-02T04:16:45.244Z,97898.13
2022-11-02T04:19:28.344Z,97890.31
2022-11-02T04:22:26.193Z,97884.06
2022-11-02T04:25:18.927Z,97891.03
2022-11-02T04:27:55.209Z,97872.66
2022-11-02T04:30:29.372Z,97893.56
2022-11-02T04:33:19.271Z,97898.97
2022-11-02T04:35:54.566Z,97906.19
2022-11-02T04:38:49.601Z,97907.03
2022-11-02T04:41:42.624Z,97913.41
2022-11-02T04:44:31.357Z,97915.09
2022-11-02T04:47:06.497Z,97930.84
2022-11-02T04:49:38.063Z,97924.72
2022-11-02T04:52:10.929Z,97925.56
2022-11-02T04:54:44.985Z,97932.78
2022-11-02T04:57:13.508Z,97933.72
2022-11-02T04:59:42.001Z,97940.59
2022-11-02T05:02:10.982Z,97935.44
2022-11-02T05:04:41.532Z,97923.97
2022-11-02T05:07:10.227Z,97926.75
2022-11-02T05:09:38.839Z,97931.47
2022-11-02T05:12:07.991Z,97934.81
2022-11-02T05:14:36.965Z,97931.34
2022-11-02T05:17:05.487Z,97927.72
2022-11-02T05:19:35.692Z,97927.72
2022-11-02T05:22:06.550Z,97918.25
2022-11-02T05:24:35.900Z,97920.75
2022-11-02T05:27:06.269Z,97919.19
2022-11-02T05:29:38.050Z,97918.94
2022-11-02T05:32:07.176Z,97926.16
2022-11-02T05:34:36.017Z,97929.78
2022-11-02T05:37:06.053Z,97929.53
2022-11-02T05:39:34.691Z,97937.00
2022-11-02T05:42:04.114Z,97933.53
2022-11-02T05:44:32.799Z,97945.66
2022-11-02T05:47:01.433Z,97928.69
2022-11-02T05:49:30.130Z,97930.75
2022-11-02T05:51:58.914Z,97937.00
2022-11-02T05:54:28.772Z,97938.94
2022-11-02T05:56:58.161Z,97940.88
2022-11-02T05:59:26.558Z,97949.53
2022-11-02T06:01:55.116Z,97953.84
2022-11-02T06:04:23.620Z,97953.13
2022-11-02T06:06:52.103Z,97963.72
2022-11-02T06:09:20.581Z,97965.53
2022-11-02T06:11:50.495Z,97957.59
2022-11-02T06:14:18.933Z,97956.75
2022-11-02T06:16:47.403Z,97965.66
2022-11-02T06:19:15.920Z,97965.66
2022-11-02T06:21:47.445Z,97967.34
2022-11-02T06:24:17.489Z,97976.25
2022-11-02T06:26:46.845Z,97981.53
2022-11-02T06:29:17.147Z,97974.56
2022-11-02T06:31:45.708Z,97981.91
2022-11-02T06:34:14.182Z,97984.56
2022-11-02T06:36:42.768Z,97994.28
2022-11-02T06:39:11.710Z,97994.28
2022-11-02T06:41:40.287Z,97996.81
2022-11-02T06:44:08.739Z,97997.66
2022-11-02T06:46:38.572Z,98007.28
2022-11-02T06:49:07.112Z,98005.47
2022-11-02T06:51:35.627Z,98010.88
2022-11-02T06:54:08.498Z,98012.69
2022-11-02T06:56:37.484Z,98032.16
2022-11-02T06:59:05.957Z,98033.84
2022-11-02T07:01:35.252Z,98031.06
2022-11-02T07:04:05.862Z,98037.22
2022-11-02T07:06:34.560Z,98044.44
2022-11-02T07:09:03.037Z,98039.84
2022-11-02T07:11:31.592Z,98046.13
2022-11-02T07:14:00.123Z,98052.25
2022-11-02T07:16:28.633Z,98049.59
2022-11-02T07:18:57.739Z,98056.69
2022-11-02T07:21:27.745Z,98047.91
2022-11-02T07:23:56.248Z,98056.56
2022-11-02T07:26:25.443Z,98048.63
2022-11-02T07:28:55.310Z,98043.34
2022-11-02T07:31:27.756Z,98052.00
2022-11-02T07:33:56.318Z,98043.34
2022-11-02T07:36:24.795Z,98045.03
2022-11-02T07:38:54.600Z,98059.94
2022-11-02T07:41:23.091Z,98059.69
2022-11-02T07:43:51.664Z,98057.16
2022-11-02T07:46:46.429Z,98063.53
2022-11-02T07:49:20.225Z,98051.28
2022-11-02T07:51:50.188Z,98057.41
2022-11-02T07:54:20.027Z,98060.91
2022-11-02T07:56:48.466Z,98055.59
2022-11-02T07:59:17.003Z,98064.50
2022-11-02T08:01:45.758Z,98056.44
2022-11-02T08:04:14.912Z,98062.56
2022-11-02T08:06:43.551Z,98059.94
2022-11-02T08:09:12.352Z,98066.78
2022-11-02T08:11:42.302Z,98058.97
2022-11-02T08:14:10.915Z,98060.66
2022-11-02T08:16:39.884Z,98060.66
2022-11-02T08:19:08.925Z,98061.63
2022-11-02T08:21:37.589Z,98060.91
2022-11-02T08:24:06.976Z,98069.78
2022-11-02T08:26:36.994Z,98074.38
2022-11-02T08:29:08.783Z,98071.72
2022-11-02T08:31:37.509Z,98068.97
2022-11-02T08:34:06.276Z,98078.44
2022-11-02T08:36:36.707Z,98078.44
2022-11-02T08:39:05.531Z,98075.81
2022-11-02T08:41:34.469Z,98081.22
2022-11-02T08:44:03.258Z,98074.00
2022-11-02T08:46:33.366Z,98079.03
2022-11-02T08:49:02.167Z,98070.97
2022-11-02T08:51:30.738Z,98079.88
2022-11-02T08:53:59.597Z,98071.09
2022-11-02T08:56:28.554Z,98076.16
2022-11-02T08:58:57.740Z,98075.31
2022-11-02T09:01:26.543Z,98078.91
2022-11-02T09:03:56.905Z,98072.66
2022-11-02T09:06:25.555Z,98072.53
2022-11-02T09:08:57.888Z,98069.78
2022-11-02T09:11:28.052Z,98072.28
2022-11-02T09:13:57.331Z,98068.59
2022-11-02T09:16:26.247Z,98065.94
2022-11-02T09:18:56.195Z,98076.63
2022-11-02T09:21:25.023Z,98062.56
2022-11-02T09:23:53.734Z,98070.28
2022-11-02T09:26:22.556Z,98067.75
2022-11-02T09:28:51.181Z,98080.47
2022-11-02T09:31:19.660Z,98077.97
2022-11-02T09:33:48.141Z,98081.31
2022-11-02T09:36:18.283Z,98077.00
2022-11-02T09:38:46.942Z,98083.00
2022-11-02T09:41:20.964Z,98083.00
2022-11-02T09:43:54.564Z,98078.69
2022-11-02T09:46:26.366Z,98075.06
2022-11-02T09:48:57.073Z,98076.16
2022-11-02T09:51:29.975Z,98074.94
2022-11-02T09:54:04.019Z,98071.31
2022-11-02T09:56:34.081Z,98078.78
2022-11-02T09:59:05.080Z,98078.13
2022-11-02T10:01:41.305Z,98087.63
2022-11-02T10:04:26.259Z,98080.66
2022-11-02T10:07:02.410Z,98087.63
2022-11-02T10:09:36.315Z,98089.66
2022-11-02T10:12:10.375Z,98085.31
2022-11-02T10:14:41.506Z,98090.50
2022-11-02T10:17:13.563Z,98084.94
2022-11-02T10:19:44.065Z,98078.44
2022-11-02T10:22:16.520Z,98090.84
2022-11-02T10:24:47.017Z,98088.44
2022-11-02T10:27:19.255Z,98085.78
2022-11-02T10:29:53.578Z,98083.13
2022-11-02T10:32:22.320Z,98072.53
2022-11-02T10:34:59.131Z,98072.28
2022-11-02T10:37:49.036Z,98078.97
2022-11-02T10:40:39.818Z,98079.69
2022-11-02T10:43:15.780Z,98082.09
2022-11-02T10:46:05.212Z,98076.66
2022-11-02T10:48:37.701Z,98085.44
2022-11-02T10:51:10.241Z,98082.69
2022-11-02T10:53:43.547Z,98085.44
2022-11-02T10:56:18.577Z,98078.34
2022-11-02T10:58:53.871Z,98074.72
2022-11-02T11:01:22.475Z,98082.56
2022-11-02T11:03:58.091Z,98077.84
2022-11-02T11:06:29.167Z,98079.25
2022-11-02T11:09:05.579Z,98083.72
2022-11-02T11:11:35.931Z,98074.81
2022-11-02T11:16:56.221Z,98070.22
2022-11-02T11:19:40.950Z,98076.34
2022-11-02T11:22:27.688Z,98073.56
2022-11-02T11:25:27.886Z,98072.34
2022-11-02T11:27:58.184Z,98073.06
2022-11-02T11:30:54.101Z,98071.97
2022-11-02T11:33:18.635Z,98064.72
2022-11-02T11:35:50.418Z,98067.38
2022-11-02T11:38:22.029Z,98068.09
2022-11-02T11:40:54.366Z,98061.94
2022-11-02T11:43:24.759Z,98054.00
2022-11-02T11:46:03.691Z,98059.28
2022-11-02T11:48:36.892Z,98056.53
2022-11-02T11:51:06.258Z,98060.00
2022-11-02T11:53:35.728Z,98051.34
2022-11-02T11:56:05.865Z,98051.47
2022-11-02T11:58:35.425Z,98045.34
2022-11-02T12:01:10.587Z,98052.44
2022-11-02T12:03:53.211Z,98055.81
2022-11-02T12:06:25.835Z,98046.88
2022-11-02T12:09:03.926Z,98046.03
2022-11-02T12:11:53.236Z,98056.66
2022-11-02T12:14:40.885Z,98053.28
2022-11-02T12:17:33.767Z,98050.63
2022-11-02T12:20:11.039Z,98048.97
2022-11-02T12:22:44.160Z,98044.63
2022-11-02T12:25:21.983Z,98049.94
2022-11-02T12:27:56.612Z,98043.78
2022-11-02T12:30:26.449Z,98050.06
2022-11-02T12:33:07.250Z,98043.91
2022-11-02T12:35:59.187Z,98035.97
2022-11-02T12:39:00.128Z,98051.03
2022-11-02T12:41:54.617Z,98047.78
2022-11-02T12:44:46.158Z,98043.22
2022-11-02T12:47:24.806Z,98036.22
2022-11-02T12:50:02.080Z,98045.84
2022-11-02T12:52:38.314Z,98042.25
2022-11-02T12:55:15.988Z,98039.72
2022-11-02T12:57:45.903Z,98024.66
2022-11-02T13:00:21.025Z,98025.50
2022-11-02T13:02:57.298Z,98022.00
2022-11-02T13:05:28.938Z,98025.50
2022-11-02T13:08:03.786Z,98033.31
2022-11-02T13:10:36.788Z,98020.06
2022-11-02T13:13:06.229Z,98025.50
2022-11-02T13:15:38.766Z,98030.66
2022-11-02T13:18:12.414Z,98021.88
2022-11-02T13:20:43.165Z,98031.38
2022-11-02T13:23:18.520Z,98022.59
2022-11-02T13:25:49.957Z,98020.78
2022-11-02T13:28:25.997Z,98011.72
2022-11-02T13:30:56.235Z,98011.72
2022-11-02T13:33:27.396Z,98011.59
2022-11-02T13:35:55.906Z,98006.31
2022-11-02T13:38:30.495Z,98012.31
2022-11-02T13:41:23.167Z,98008.69
2022-11-02T13:44:07.482Z,98002.56
2022-11-02T13:46:54.644Z,98007.59
2022-11-02T13:49:29.848Z,98008.16
2022-11-02T13:52:01.099Z,98010.41
2022-11-02T13:54:31.874Z,98008.34
2022-11-02T13:57:00.673Z,98004.59
2022-11-02T13:59:31.985Z,97999.91
2022-11-02T14:02:03.486Z,97996.16
2022-11-02T14:04:39.117Z,98001.31
2022-11-02T14:07:10.515Z,97995.88
2022-11-02T14:09:42.280Z,97995.63
2022-11-02T14:12:40.999Z,98001.34
2022-11-02T14:15:38.820Z,98001.06
2022-11-02T14:18:13.344Z,97998.28
2022-11-02T14:20:43.569Z,97997.28
2022-11-02T14:23:37.890Z,97994.38
2022-11-02T14:26:54.547Z,97994.09
2022-11-02T14:29:49.362Z,97994.81
2022-11-02T14:32:24.030Z,97992.03
2022-11-02T14:35:01.645Z,97996.88
2022-11-02T14:37:44.536Z,97996.88
2022-11-02T14:40:21.717Z,97995.78
2022-11-02T14:43:24.032Z,97993.13
2022-11-02T14:46:09.310Z,97983.75
2022-11-02T14:48:46.352Z,97990.47
2022-11-02T14:51:18.987Z,97984.91
2022-11-02T14:53:48.161Z,97990.06
2022-11-02T14:56:16.754Z,97988.97
2022-11-02T14:58:53.357Z,97994.13
2022-11-02T15:01:22.554Z,97984.38
2022-11-02T15:03:51.683Z,97986.03
2022-11-02T15:06:23.804Z,97987.72
2022-11-02T15:08:55.739Z,97982.28
2022-11-02T15:11:47.377Z,97976.97
2022-11-02T15:15:06.534Z,97985.78
2022-11-02T15:17:55.784Z,97987.44
2022-11-02T15:20:30.028Z,97994.56
2022-11-02T15:23:09.160Z,98001.81
2022-11-02T15:25:41.106Z,97998.47
2022-11-02T15:28:13.509Z,97996.09
2022-11-02T15:30:45.089Z,97992.88
2022-11-02T15:33:20.273Z,97990.34
2022-11-02T15:35:49.789Z,97999.28
2022-11-02T15:38:24.136Z,97987.81
2022-11-02T15:41:06.477Z,97985.31
2022-11-02T15:43:56.103Z,97988.09
2022-11-02T15:46:33.016Z,97989.06
2022-11-02T15:49:11.887Z,97998.00
2022-11-02T15:51:48.244Z,97978.59
2022-11-02T15:54:46.076Z,97985.72
2022-11-02T15:57:24.031Z,97971.75
2022-11-02T16:00:06.920Z,97985.97
2022-11-02T16:02:39.642Z,97979.84
2022-11-02T16:05:20.588Z,97972.03
2022-11-02T16:08:10.025Z,97975.28
2022-11-02T16:10:39.015Z,97973.75
2022-11-02T16:13:16.934Z,97973.47
2022-11-02T16:15:46.742Z,97972.19
2022-11-02T16:18:25.490Z,97981.38
2022-11-02T16:20:57.477Z,97981.53
2022-11-02T16:23:27.418Z,97978.88
2022-11-02T16:25:57.637Z,97977.19
2022-11-02T16:28:28.006Z,97982.63
2022-11-02T16:31:12.466Z,97985.28
2022-11-02T16:33:44.651Z,97987.13
2022-11-02T16:36:17.109Z,97994.25
2022-11-02T16:38:52.507Z,97989.06
2022-11-02T16:41:21.223Z,97992.69
2022-11-02T16:43:50.822Z,97993.66
2022-11-02T16:46:29.463Z,97988.50
2022-11-02T16:49:15.248Z,97996.44
2022-11-02T16:51:51.426Z,97996.59
2022-11-02T16:54:28.270Z,97994.91
2022-11-02T16:56:58.701Z,97997.56
2022-11-02T16:59:27.444Z,97999.38
2022-11-02T17:01:59.946Z,97997.69
2022-11-02T17:04:31.272Z,97994.19
2022-11-02T17:07:11.898Z,97995.16
2022-11-02T17:09:41.268Z,97997.94
2022-11-02T17:12:14.198Z,97996.97
2022-11-02T17:14:43.355Z,97997.94
2022-11-02T17:17:33.421Z,97988.31
2022-11-02T17:20:09.742Z,97992.78
2022-11-02T17:22:41.431Z,97987.63
2022-11-02T17:25:14.481Z,97986.78
2022-11-02T17:27:43.043Z,97991.25
2022-11-02T17:30:43.609Z,97988.69
2022-11-02T17:33:26.685Z,97990.38
2022-11-02T17:35:57.089Z,97988.81
2022-11-02T17:38:28.613Z,97981.84
2022-11-02T17:40:57.493Z,97989.78
2022-11-02T17:43:25.264Z,97991.59
2022-11-02T17:45:55.346Z,97988.13
2022-11-02T17:48:24.567Z,97987.28
2022-11-02T17:50:54.078Z,97989.09
2022-11-02T17:53:23.458Z,97980.44
2022-11-02T17:55:54.525Z,97986.69
2022-11-02T17:58:23.039Z,97985.03
2022-11-02T18:00:53.821Z,97989.47
2022-11-02T18:03:25.448Z,97981.66
2022-11-02T18:05:59.747Z,97986.97
2022-11-02T18:08:29.455Z,97980.81
2022-11-02T18:10:59.569Z,97982.78
2022-11-02T18:13:28.179Z,97975.78
2022-11-02T18:15:57.821Z,97969.66
2022-11-02T18:18:28.076Z,97972.44
2022-11-02T18:20:57.117Z,97965.47
2022-11-02T18:23:25.864Z,97965.47
2022-11-02T18:25:58.284Z,97962.09
2022-11-02T18:28:29.557Z,97968.25
2022-11-02T18:30:58.085Z,97965.59
2022-11-02T18:33:31.857Z,97958.63
2022-11-02T18:36:05.270Z,97950.94
2022-11-02T18:38:33.949Z,97960.69
2022-11-02T18:41:26.996Z,97954.56
2022-11-02T18:44:03.522Z,97950.22
2022-11-02T18:46:34.887Z,97954.69
2022-11-02T18:49:04.714Z,97942.41
2022-11-02T18:51:33.658Z,97931.94
2022-11-02T18:54:03.330Z,97932.06
2022-11-02T18:56:31.965Z,97932.06
2022-11-02T18:59:33.130Z,97937.38
2022-11-02T19:02:42.852Z,97933.88
2022-11-02T19:05:35.158Z,97924.25
2022-11-02T19:08:21.191Z,97923.41
2022-11-02T19:10:50.019Z,97916.56
2022-11-02T19:13:18.598Z,97920.19
2022-11-02T19:15:48.541Z,97921.03
2022-11-02T19:18:17.088Z,97917.53
2022-11-02T19:20:45.626Z,97910.72
2022-11-02T19:23:14.728Z,97909.88
2022-11-02T19:25:43.259Z,97909.03
2022-11-02T19:28:11.818Z,97912.50
2022-11-02T19:30:40.736Z,97907.34
2022-11-02T19:33:10.638Z,97909.16
2022-11-02T19:35:39.172Z,97907.47
2022-11-02T19:38:07.719Z,97913.75
2022-11-02T19:40:36.503Z,97915.56
2022-11-02T19:43:05.219Z,97917.38
2022-11-02T19:45:33.965Z,97915.69
2022-11-02T19:48:03.036Z,97918.47
2022-11-02T19:50:33.524Z,97909.69
2022-11-02T19:53:02.128Z,97909.69
2022-11-02T19:55:30.672Z,97901.03
2022-11-02T19:57:59.120Z,97898.38
2022-11-02T20:00:27.795Z,97905.50
2022-11-02T20:02:56.368Z,97897.69
2022-11-02T20:05:24.920Z,97889.72
2022-11-02T20:07:54.800Z,97889.88
2022-11-02T20:10:23.372Z,97896.00
2022-11-02T20:12:51.896Z,97894.31
2022-11-02T20:15:20.552Z,97895.28
2022-11-02T20:18:18.555Z,97898.91
2022-11-02T20:20:38.929Z,97892.78
2022-11-02T20:23:08.781Z,97886.81
2022-11-02T20:25:38.797Z,97894.75
2022-11-02T20:28:07.661Z,97889.59
2022-11-02T20:30:41.679Z,97892.22
2022-11-02T20:33:10.409Z,97890.56
2022-11-02T20:35:39.983Z,97887.19
2022-11-02T20:38:09.870Z,97879.25
2022-11-02T20:40:41.199Z,97886.22
2022-11-02T20:43:10.033Z,97887.19
2022-11-02T20:45:38.728Z,97889.97
2022-11-02T20:48:07.854Z,97889.13
2022-11-02T20:50:36.867Z,97887.47
2022-11-02T20:53:05.653Z,97890.94
2022-11-02T20:55:35.899Z,97899.88
2022-11-02T20:58:05.568Z,97894.69
2022-11-02T21:00:34.085Z,97895.66
2022-11-02T21:03:02.793Z,97893.16
2022-11-02T21:05:32.072Z,97894.00
2022-11-02T21:08:01.017Z,97889.66
2022-11-02T21:10:29.542Z,97884.50
2022-11-02T21:13:18.120Z,97881.03
2022-11-02T21:15:46.646Z,97881.97
2022-11-02T21:18:15.487Z,97881.28
2022-11-02T21:20:44.860Z,97875.00
2022-11-02T21:23:13.417Z,97869.84
2022-11-02T21:25:42.295Z,97876.13
2022-11-02T21:28:12.532Z,97881.41
2022-11-02T21:30:41.093Z,97877.09
2022-11-02T21:33:09.639Z,97882.38
2022-11-02T21:35:38.236Z,97884.31
2022-11-02T21:38:07.819Z,97881.81
2022-11-02T21:40:36.487Z,97892.38
2022-11-02T21:43:05.386Z,97877.47
2022-11-02T21:45:38.027Z,97874.00
2022-11-02T21:48:07.032Z,97881.22
2022-11-02T21:50:35.771Z,97872.44
2022-11-02T21:53:04.631Z,97864.50
2022-11-02T21:55:33.450Z,97878.69
2022-11-02T21:58:01.923Z,97870.06
2022-11-02T22:00:50.526Z,97857.78
2022-11-02T22:03:19.858Z,97855.16
2022-11-02T22:05:57.458Z,97857.94
2022-11-02T22:08:41.225Z,97854.31
2022-11-02T22:11:11.881Z,97851.78
2022-11-02T22:13:41.352Z,97852.75
2022-11-02T22:16:15.782Z,97843.00
2022-11-02T22:18:47.252Z,97849.41
2022-11-02T22:21:16.505Z,97849.41
2022-11-02T22:23:46.747Z,97853.72
2022-11-02T22:26:16.735Z,97851.22
2022-11-02T22:28:46.420Z,97859.28
2022-11-02T22:31:17.006Z,97853.16
2022-11-02T22:33:48.296Z,97854.97
2022-11-02T22:36:18.374Z,97855.09
2022-11-02T22:38:48.776Z,97853.41
2022-11-02T22:41:17.587Z,97849.06
2022-11-02T22:43:46.283Z,97847.38
2022-11-02T22:46:15.714Z,97841.13
2022-11-02T22:48:45.772Z,97838.47
2022-11-02T22:51:14.849Z,97836.78
2022-11-02T22:53:43.489Z,97830.78
2022-11-02T22:56:13.319Z,97830.91
2022-11-02T22:58:43.840Z,97829.13
2022-11-02T23:01:14.591Z,97828.28
2022-11-02T23:03:43.654Z,97827.56
2022-11-02T23:06:14.139Z,97825.63
2022-11-02T23:08:44.663Z,97824.09
2022-11-02T23:11:22.939Z,97819.75
2022-11-02T23:13:54.691Z,97820.59
2022-11-02T23:16:24.561Z,97814.47
2022-11-02T23:19:13.915Z,97818.09
2022-11-02T23:21:45.871Z,97811.97
2022-11-02T23:24:31.831Z,97810.28
2022-11-02T23:27:00.521Z,97813.06
2022-11-02T23:29:46.900Z,97806.94
2022-11-02T23:32:28.940Z,97803.56
2022-11-02T23:35:15.799Z,97803.44
2022-11-02T23:37:46.874Z,97800.22
2022-11-02T23:40:17.172Z,97802.72
2022-11-02T23:42:45.963Z,97800.34
2022-11-02T23:45:14.570Z,97800.34
2022-11-02T23:47:58.086Z,97793.25
2022-11-02T23:50:46.222Z,97787.13
2022-11-02T23:53:44.708Z,97785.31
2022-11-02T23:56:33.468Z,97786.28
2022-11-02T23:59:07.911Z,97775.97
